createdAt,value
2018-05-21T00:00:30.045Z,12.48
2018-05-21T00:03:34.132Z,12.44
2018-05-21T00:06:37.442Z,12.40
2018-05-21T00:09:40.770Z,12.37
2018-05-21T00:12:44.069Z,12.33
2018-05-21T00:15:47.389Z,12.31
2018-05-21T00:18:50.690Z,12.27
2018-05-21T00:21:54.001Z,12.24
2018-05-21T00:24:57.305Z,12.21
2018-05-21T00:28:00.621Z,12.21
2018-05-21T00:31:03.926Z,12.24
2018-05-21T00:34:08.010Z,12.25
2018-05-21T00:37:11.318Z,12.27
2018-05-21T00:40:14.649Z,12.21
2018-05-21T00:43:17.958Z,12.18
2018-05-21T00:46:21.277Z,12.19
2018-05-21T00:49:24.573Z,12.22
2018-05-21T00:52:27.898Z,12.24
2018-05-21T00:55:37.801Z,12.21
2018-05-21T00:58:41.121Z,12.20
2018-05-21T01:01:44.433Z,12.20
2018-05-21T01:04:47.741Z,12.22
2018-05-21T01:07:51.053Z,12.23
2018-05-21T01:10:55.137Z,12.17
2018-05-21T01:13:58.434Z,12.12
2018-05-21T01:17:01.763Z,12.09
2018-05-21T01:20:05.833Z,12.00
2018-05-21T01:23:09.149Z,11.92
2018-05-21T01:26:12.454Z,11.91
2018-05-21T01:29:15.770Z,11.92
2018-05-21T01:32:19.837Z,11.93
2018-05-21T01:35:23.187Z,11.90
2018-05-21T01:38:26.481Z,11.86
2018-05-21T01:41:30.558Z,11.89
2018-05-21T01:44:33.857Z,11.90
2018-05-21T01:47:37.168Z,11.87
2018-05-21T01:50:40.468Z,11.86
2018-05-21T01:53:43.797Z,11.84
2018-05-21T01:56:47.093Z,11.88
2018-05-21T01:59:50.412Z,11.86
2018-05-21T02:02:53.711Z,11.79
2018-05-21T02:05:57.022Z,11.77
2018-05-21T02:09:00.337Z,11.76
2018-05-21T02:12:03.657Z,11.77
2018-05-21T02:15:07.774Z,11.77
2018-05-21T02:18:11.069Z,11.76
2018-05-21T02:21:15.142Z,11.74
2018-05-21T02:24:18.453Z,11.75
2018-05-21T02:27:21.767Z,11.72
2018-05-21T02:30:25.855Z,11.67
2018-05-21T02:33:29.155Z,11.61
2018-05-21T02:36:32.469Z,11.52
2018-05-21T02:39:36.542Z,11.50
2018-05-21T02:42:39.867Z,11.46
2018-05-21T02:45:43.169Z,11.48
2018-05-21T02:48:46.500Z,11.48
2018-05-21T02:51:49.806Z,11.41
2018-05-21T02:54:53.141Z,11.39
2018-05-21T02:57:56.445Z,11.42
2018-05-21T03:00:59.757Z,11.43
2018-05-21T03:04:03.077Z,11.40
2018-05-21T03:07:06.383Z,11.42
2018-05-21T03:10:09.704Z,11.43
2018-05-21T03:13:12.997Z,11.44
2018-05-21T03:16:16.305Z,11.45
2018-05-21T03:19:19.605Z,11.53
2018-05-21T03:22:22.921Z,11.54
2018-05-21T03:25:26.221Z,11.54
2018-05-21T03:28:29.553Z,11.56
2018-05-21T03:31:32.848Z,11.52
2018-05-21T03:34:36.156Z,11.48
2018-05-21T03:37:39.489Z,11.47
2018-05-21T03:40:42.793Z,11.49
2018-05-21T03:43:46.121Z,11.49
2018-05-21T03:46:50.190Z,11.48
2018-05-21T03:49:53.510Z,11.46
2018-05-21T03:52:56.822Z,11.47
2018-05-21T03:56:00.129Z,11.51
2018-05-21T03:59:21.137Z,11.53
2018-05-21T04:02:43.528Z,11.59
2018-05-21T04:05:46.843Z,11.66
2018-05-21T04:08:50.168Z,11.72
2018-05-21T04:11:54.316Z,11.77
2018-05-21T04:14:57.585Z,11.81
2018-05-21T04:18:01.708Z,11.87
2018-05-21T04:21:05.013Z,11.94
2018-05-21T04:24:08.351Z,11.98
2018-05-21T04:27:11.650Z,12.05
2018-05-21T04:30:14.961Z,12.11
2018-05-21T04:33:18.277Z,12.16
2018-05-21T04:36:22.377Z,12.20
2018-05-21T04:39:25.680Z,12.24
2018-05-21T04:42:29.762Z,12.33
2018-05-21T04:45:33.070Z,12.40
2018-05-21T04:48:36.388Z,12.47
2018-05-21T04:51:39.705Z,12.52
2018-05-21T04:54:43.768Z,12.56
2018-05-21T04:57:47.090Z,12.63
2018-05-21T05:00:50.391Z,12.69
2018-05-21T05:03:54.473Z,12.76
2018-05-21T05:06:57.786Z,12.81
2018-05-21T05:10:01.136Z,12.87
2018-05-21T05:13:05.210Z,12.94
2018-05-21T05:16:09.298Z,13.01
2018-05-21T05:19:12.610Z,13.10
2018-05-21T05:22:15.912Z,13.18
2018-05-21T05:25:19.233Z,13.25
2018-05-21T05:28:23.314Z,13.37
2018-05-21T05:31:26.617Z,13.47
2018-05-21T05:34:29.930Z,13.57
2018-05-21T05:37:33.998Z,13.66
2018-05-21T05:40:37.337Z,13.75
2018-05-21T05:43:41.410Z,13.85
2018-05-21T05:46:44.718Z,13.96
2018-05-21T05:49:48.045Z,14.05
2018-05-21T05:52:52.121Z,14.16
2018-05-21T05:55:55.459Z,14.27
2018-05-21T05:58:59.540Z,14.37
2018-05-21T06:02:02.849Z,14.46
2018-05-21T06:05:06.194Z,14.56
2018-05-21T06:08:09.493Z,14.67
2018-05-21T06:11:12.801Z,14.79
2018-05-21T06:14:16.106Z,14.93
2018-05-21T06:17:19.427Z,15.03
2018-05-21T06:20:22.729Z,15.14
2018-05-21T06:23:26.041Z,15.23
2018-05-21T06:26:30.122Z,15.31
2018-05-21T06:29:33.437Z,15.44
2018-05-21T06:32:36.738Z,15.56
2018-05-21T06:35:40.054Z,15.66
2018-05-21T06:38:44.150Z,15.75
2018-05-21T06:41:47.462Z,15.83
2018-05-21T06:44:50.800Z,15.93
2018-05-21T06:47:54.100Z,16.03
2018-05-21T06:50:57.408Z,16.13
2018-05-21T06:54:00.710Z,16.22
2018-05-21T06:57:04.025Z,16.31
2018-05-21T07:00:07.346Z,16.41
2018-05-21T07:03:11.422Z,16.54
2018-05-21T07:06:14.728Z,16.66
2018-05-21T07:09:18.025Z,16.80
2018-05-21T07:12:21.342Z,16.98
2018-05-21T07:15:25.405Z,17.07
2018-05-21T07:18:28.721Z,17.14
2018-05-21T07:21:32.026Z,17.25
2018-05-21T07:24:35.339Z,17.36
2018-05-21T07:27:39.417Z,17.52
2018-05-21T07:30:42.729Z,17.72
2018-05-21T07:33:46.037Z,17.89
2018-05-21T07:36:49.334Z,18.08
2018-05-21T07:39:52.645Z,18.17
2018-05-21T07:42:56.725Z,18.29
2018-05-21T07:46:00.026Z,18.42
2018-05-21T07:49:03.343Z,18.53
2018-05-21T07:52:06.658Z,18.58
2018-05-21T07:55:09.978Z,18.68
2018-05-21T07:58:13.304Z,18.80
2018-05-21T08:01:16.613Z,18.90
2018-05-21T08:04:19.917Z,19.00
2018-05-21T08:07:23.229Z,19.10
2018-05-21T08:10:27.326Z,19.20
2018-05-21T08:13:30.629Z,19.27
2018-05-21T08:16:33.954Z,19.39
2018-05-21T08:19:37.269Z,19.57
2018-05-21T08:22:40.583Z,19.70
2018-05-21T08:25:43.896Z,19.73
2018-05-21T08:28:47.223Z,19.76
2018-05-21T08:31:50.530Z,19.78
2018-05-21T08:34:54.614Z,19.86
2018-05-21T08:37:57.958Z,19.97
2018-05-21T08:41:01.262Z,20.07
2018-05-21T08:44:04.577Z,20.15
2018-05-21T08:47:07.891Z,20.25
2018-05-21T08:50:11.212Z,20.32
2018-05-21T08:53:15.288Z,20.44
2018-05-21T08:56:18.631Z,20.56
2018-05-21T08:59:22.710Z,20.68
2018-05-21T09:02:26.021Z,20.75
2018-05-21T09:05:29.327Z,20.86
2018-05-21T09:08:32.633Z,20.93
2018-05-21T09:11:36.710Z,20.99
2018-05-21T09:14:40.017Z,20.96
2018-05-21T09:17:43.336Z,21.01
2018-05-21T09:20:47.434Z,21.04
2018-05-21T09:23:50.733Z,21.08
2018-05-21T09:26:54.076Z,21.16
2018-05-21T09:29:57.378Z,21.21
2018-05-21T09:33:00.695Z,21.17
2018-05-21T09:36:04.002Z,21.14
2018-05-21T09:39:07.350Z,21.13
2018-05-21T09:42:10.657Z,21.19
2018-05-21T09:45:13.969Z,21.23
2018-05-21T09:48:17.280Z,21.26
2018-05-21T09:51:20.590Z,21.25
2018-05-21T09:54:23.913Z,21.29
2018-05-21T09:57:27.978Z,21.29
2018-05-21T10:00:31.298Z,21.31
2018-05-21T10:03:34.610Z,21.34
2018-05-21T10:06:37.952Z,21.29
2018-05-21T10:09:41.262Z,21.23
2018-05-21T10:12:44.572Z,21.25
2018-05-21T10:15:47.882Z,21.24
2018-05-21T10:18:51.190Z,21.25
2018-05-21T10:21:54.511Z,21.33
2018-05-21T10:24:57.813Z,21.41
2018-05-21T10:28:01.134Z,21.51
2018-05-21T10:31:04.450Z,21.64
2018-05-21T10:34:07.770Z,21.80
2018-05-21T10:37:11.159Z,21.94
2018-05-21T10:40:15.190Z,22.05
2018-05-21T10:43:18.488Z,22.21
2018-05-21T10:46:21.818Z,22.31
2018-05-21T10:49:25.117Z,22.40
2018-05-21T10:52:28.449Z,22.45
2018-05-21T10:55:31.757Z,22.45
2018-05-21T10:58:35.093Z,22.58
2018-05-21T11:01:38.430Z,22.53
2018-05-21T11:04:41.829Z,22.45
2018-05-21T11:07:45.110Z,22.41
2018-05-21T11:10:48.497Z,22.39
2018-05-21T11:13:51.782Z,22.40
2018-05-21T11:16:55.090Z,22.32
2018-05-21T11:19:58.409Z,22.26
2018-05-21T11:23:01.715Z,22.17
2018-05-21T11:26:05.033Z,22.20
2018-05-21T11:29:08.395Z,22.23
2018-05-21T11:32:11.697Z,22.24
2018-05-21T11:35:15.018Z,22.16
2018-05-21T11:38:18.376Z,22.22
2018-05-21T11:41:21.676Z,22.26
2018-05-21T11:44:25.002Z,22.29
2018-05-21T11:47:28.311Z,22.39
2018-05-21T11:50:31.645Z,22.50
2018-05-21T11:53:34.956Z,22.45
2018-05-21T11:56:38.272Z,22.42
2018-05-21T11:59:41.577Z,22.40
2018-05-21T12:02:44.921Z,22.37
2018-05-21T12:05:48.330Z,22.42
2018-05-21T12:08:51.638Z,22.42
2018-05-21T12:11:54.962Z,22.44
2018-05-21T12:14:58.266Z,22.39
2018-05-21T12:18:01.632Z,22.35
2018-05-21T12:21:04.936Z,22.30
2018-05-21T12:24:08.282Z,22.31
2018-05-21T12:27:12.359Z,22.30
2018-05-21T12:30:15.681Z,22.26
2018-05-21T12:33:18.994Z,22.20
2018-05-21T12:36:23.085Z,22.20
2018-05-21T12:39:26.405Z,22.19
2018-05-21T12:42:30.499Z,22.15
2018-05-21T12:45:33.812Z,22.13
2018-05-21T12:48:37.898Z,22.18
2018-05-21T12:51:41.213Z,22.17
2018-05-21T12:54:44.544Z,22.07
2018-05-21T12:57:47.861Z,22.10
2018-05-21T13:00:51.188Z,22.06
2018-05-21T13:03:54.503Z,22.06
2018-05-21T13:06:57.828Z,22.15
2018-05-21T13:10:01.142Z,22.28
2018-05-21T13:13:04.572Z,22.32
2018-05-21T13:16:07.891Z,22.43
2018-05-21T13:19:11.222Z,22.41
2018-05-21T13:22:14.530Z,22.44
2018-05-21T13:25:17.867Z,22.50
2018-05-21T13:28:21.179Z,22.64
2018-05-21T13:31:24.493Z,22.62
2018-05-21T13:34:28.572Z,22.48
2018-05-21T13:37:31.911Z,22.52
2018-05-21T13:40:35.218Z,22.51
2018-05-21T13:43:38.541Z,22.49
2018-05-21T13:46:41.847Z,22.46
2018-05-21T13:49:45.198Z,22.46
2018-05-21T13:52:48.514Z,22.57
2018-05-21T13:55:51.828Z,22.65
2018-05-21T13:58:55.189Z,22.64
2018-05-21T14:01:58.492Z,22.53
2018-05-21T14:05:01.816Z,22.42
2018-05-21T14:08:05.151Z,22.20
2018-05-21T14:11:08.465Z,22.18
2018-05-21T14:14:11.792Z,22.26
2018-05-21T14:17:15.187Z,22.37
2018-05-21T14:20:18.450Z,22.49
2018-05-21T14:23:22.516Z,22.60
2018-05-21T14:26:25.837Z,22.75
2018-05-21T14:29:29.249Z,22.80
2018-05-21T14:32:32.493Z,22.84
2018-05-21T14:35:35.798Z,22.70
2018-05-21T14:38:39.112Z,22.69
2018-05-21T14:41:42.434Z,22.73
2018-05-21T14:44:45.754Z,22.80
2018-05-21T14:47:49.833Z,22.83
2018-05-21T14:50:53.155Z,22.85
2018-05-21T14:53:57.237Z,22.97
2018-05-21T14:57:00.553Z,23.03
2018-05-21T15:00:03.885Z,23.25
2018-05-21T15:03:07.213Z,23.49
2018-05-21T15:06:10.538Z,23.57
2018-05-21T15:09:13.864Z,23.58
2018-05-21T15:12:17.941Z,23.57
2018-05-21T15:15:21.257Z,23.67
2018-05-21T15:18:25.344Z,24.04
2018-05-21T15:21:28.665Z,24.09
2018-05-21T15:24:31.985Z,24.04
2018-05-21T15:27:36.067Z,24.04
2018-05-21T15:30:39.393Z,23.94
2018-05-21T15:33:43.465Z,24.13
2018-05-21T15:36:46.799Z,24.23
2018-05-21T15:39:50.108Z,24.42
2018-05-21T15:42:53.425Z,24.52
2018-05-21T15:45:56.725Z,24.52
2018-05-21T15:49:00.814Z,24.36
2018-05-21T15:52:04.138Z,24.08
2018-05-21T15:55:07.452Z,23.96
2018-05-21T15:58:10.773Z,23.75
2018-05-21T16:01:14.079Z,23.55
2018-05-21T16:04:18.201Z,23.32
2018-05-21T16:07:22.278Z,22.99
2018-05-21T16:10:25.614Z,22.64
2018-05-21T16:13:29.682Z,22.45
2018-05-21T16:16:32.999Z,22.10
2018-05-21T16:19:36.318Z,21.84
2018-05-21T16:22:40.401Z,21.70
2018-05-21T16:25:43.744Z,21.46
2018-05-21T16:28:47.073Z,21.24
2018-05-21T16:31:50.402Z,21.02
2018-05-21T16:34:53.722Z,20.87
2018-05-21T16:37:57.801Z,20.71
2018-05-21T16:41:01.119Z,20.63
2018-05-21T16:44:04.425Z,20.65
2018-05-21T16:47:08.532Z,20.57
2018-05-21T16:50:12.609Z,20.51
2018-05-21T16:53:15.940Z,20.44
2018-05-21T16:56:19.245Z,20.33
2018-05-21T16:59:23.326Z,20.11
2018-05-21T17:02:26.643Z,20.01
2018-05-21T17:05:29.988Z,19.93
2018-05-21T17:08:33.301Z,19.82
2018-05-21T17:11:36.710Z,19.75
2018-05-21T17:14:39.942Z,19.69
2018-05-21T17:17:44.020Z,19.71
2018-05-21T17:20:47.337Z,19.65
2018-05-21T17:23:50.664Z,19.65
2018-05-21T17:26:54.754Z,19.52
2018-05-21T17:29:58.061Z,19.48
2018-05-21T17:33:02.140Z,19.41
2018-05-21T17:36:05.445Z,19.35
2018-05-21T17:39:08.766Z,19.37
2018-05-21T17:42:12.845Z,19.31
2018-05-21T17:45:16.154Z,19.19
2018-05-21T17:48:19.479Z,19.11
2018-05-21T17:51:23.558Z,19.11
2018-05-21T17:54:26.869Z,19.06
2018-05-21T17:57:30.173Z,18.98
2018-05-21T18:00:33.493Z,18.91
2018-05-21T18:03:37.605Z,18.89
2018-05-21T18:06:40.902Z,18.85
2018-05-21T18:09:44.196Z,18.83
2018-05-21T18:12:48.290Z,18.79
2018-05-21T18:15:51.598Z,18.77
2018-05-21T18:18:55.826Z,18.74
2018-05-21T18:21:59.933Z,18.68
2018-05-21T18:25:04.019Z,18.62
2018-05-21T18:28:07.333Z,18.53
2018-05-21T18:31:10.637Z,18.48
2018-05-21T18:34:14.719Z,18.39
2018-05-21T18:37:18.054Z,18.29
2018-05-21T18:40:22.135Z,18.25
2018-05-21T18:43:25.459Z,18.16
2018-05-21T18:46:28.765Z,18.09
2018-05-21T18:49:32.849Z,17.91
2018-05-21T18:52:36.157Z,17.90
2018-05-21T18:55:39.476Z,17.82
2018-05-21T18:58:43.566Z,17.77
2018-05-21T19:01:46.869Z,17.69
2018-05-21T19:04:50.186Z,17.63
2018-05-21T19:07:54.269Z,17.59
2018-05-21T19:10:57.584Z,17.55
2018-05-21T19:14:01.679Z,17.43
2018-05-21T19:17:05.009Z,17.31
2018-05-21T19:20:09.099Z,17.22
2018-05-21T19:23:12.401Z,17.18
2018-05-21T19:26:15.715Z,17.18
2018-05-21T19:29:19.790Z,17.10
2018-05-21T19:32:23.113Z,17.05
2018-05-21T19:35:27.189Z,16.98
2018-05-21T19:38:30.517Z,16.90
2018-05-21T19:41:33.833Z,16.83
2018-05-21T19:44:37.168Z,16.77
2018-05-21T19:47:41.237Z,16.71
2018-05-21T19:50:45.324Z,16.67
2018-05-21T19:53:48.656Z,16.58
2018-05-21T19:56:52.724Z,16.53
2018-05-21T19:59:56.099Z,16.48
2018-05-21T20:02:59.370Z,16.48
2018-05-21T20:06:02.678Z,16.42
2018-05-21T20:09:06.005Z,16.38
2018-05-21T20:12:09.320Z,16.34
2018-05-21T20:15:12.642Z,16.32
2018-05-21T20:18:23.314Z,16.37
2018-05-21T20:21:27.397Z,16.32
2018-05-21T20:24:30.738Z,16.33
2018-05-21T20:27:34.059Z,16.33
2018-05-21T20:30:37.377Z,16.29
2018-05-21T20:33:40.720Z,16.28
2018-05-21T20:36:44.817Z,16.25
2018-05-21T20:39:48.127Z,16.25
2018-05-21T20:42:52.209Z,16.14
2018-05-21T20:45:55.522Z,16.12
2018-05-21T20:48:58.849Z,16.07
2018-05-21T20:52:02.173Z,16.01
2018-05-21T20:55:05.495Z,16.00
2018-05-21T20:58:08.798Z,15.95
2018-05-21T21:01:12.134Z,15.92
2018-05-21T21:04:15.473Z,15.92
2018-05-21T21:07:18.785Z,15.93
2018-05-21T21:10:22.096Z,15.84
2018-05-21T21:13:25.419Z,15.74
2018-05-21T21:16:28.729Z,15.68
2018-05-21T21:19:32.046Z,15.65
2018-05-21T21:22:35.349Z,15.59
2018-05-21T21:25:38.687Z,15.52
2018-05-21T21:28:42.769Z,15.49
2018-05-21T21:31:46.085Z,15.46
2018-05-21T21:34:49.411Z,15.40
2018-05-21T21:37:52.722Z,15.37
2018-05-21T21:40:56.054Z,15.34
2018-05-21T21:43:59.369Z,15.22
2018-05-21T21:47:02.692Z,15.16
2018-05-21T21:50:06.901Z,15.07
2018-05-21T21:53:10.978Z,15.02
2018-05-21T21:56:14.298Z,15.00
2018-05-21T21:59:17.613Z,15.00
2018-05-21T22:02:21.698Z,14.96
2018-05-21T22:05:25.014Z,14.94
2018-05-21T22:08:29.109Z,14.94
2018-05-21T22:11:32.422Z,14.90
2018-05-21T22:14:36.511Z,14.84
2018-05-21T22:17:39.853Z,14.78
2018-05-21T22:20:43.930Z,14.79
2018-05-21T22:23:47.245Z,14.82
2018-05-21T22:26:51.321Z,14.82
2018-05-21T22:29:54.637Z,14.78
2018-05-21T22:32:57.945Z,14.72
2018-05-21T22:36:01.274Z,14.66
2018-05-21T22:39:04.589Z,14.70
2018-05-21T22:42:07.905Z,14.72
2018-05-21T22:45:11.245Z,14.65
2018-05-21T22:48:15.324Z,14.60
2018-05-21T22:51:18.640Z,14.58
2018-05-21T22:54:35.571Z,14.56
2018-05-21T22:57:38.876Z,14.49
2018-05-21T23:00:42.954Z,14.46
2018-05-21T23:03:46.274Z,14.40
2018-05-21T23:06:50.357Z,14.40
2018-05-21T23:09:53.683Z,14.36
2018-05-21T23:12:57.006Z,14.32
2018-05-21T23:16:00.327Z,14.31
2018-05-21T23:19:04.397Z,14.30
2018-05-21T23:22:08.483Z,14.30
2018-05-21T23:25:11.822Z,14.30
2018-05-21T23:28:15.890Z,14.30
2018-05-21T23:31:19.209Z,14.24
2018-05-21T23:34:22.524Z,14.21
2018-05-21T23:37:26.594Z,14.16
2018-05-21T23:40:29.914Z,14.16
2018-05-21T23:43:33.233Z,14.16
2018-05-21T23:46:37.319Z,14.17
2018-05-21T23:49:40.646Z,14.18
2018-05-21T23:52:44.712Z,14.14
2018-05-21T23:55:48.064Z,14.14
2018-05-21T23:58:52.124Z,14.16
